createdAt,value
2024-02-08T00:01:00.466Z,5.90
2024-02-08T00:03:26.908Z,6.10
2024-02-08T00:05:53.352Z,5.10
2024-02-08T00:08:19.814Z,4.68
2024-02-08T00:10:46.273Z,6.75
2024-02-08T00:13:12.753Z,6.50
2024-02-08T00:15:39.212Z,6.60
2024-02-08T00:18:05.774Z,5.68
2024-02-08T00:20:32.290Z,7.78
2024-02-08T00:22:58.748Z,7.28
2024-02-08T00:25:25.239Z,5.93
2024-02-08T00:27:51.751Z,8.93
2024-02-08T00:30:18.228Z,6.03
2024-02-08T00:32:44.679Z,6.85
2024-02-08T00:35:12.046Z,7.05
2024-02-08T00:37:38.907Z,7.57
2024-02-08T00:40:05.428Z,5.47
2024-02-08T00:42:31.882Z,5.20
2024-02-08T00:44:58.317Z,7.47
2024-02-08T00:47:24.763Z,8.25
2024-02-08T00:49:51.261Z,8.07
2024-02-08T00:52:17.766Z,6.25
2024-02-08T00:54:44.270Z,6.30
2024-02-08T00:57:10.697Z,7.47
2024-02-08T00:59:37.145Z,7.30
2024-02-08T01:02:03.643Z,9.48
2024-02-08T01:04:30.147Z,6.35
2024-02-08T01:06:56.643Z,7.00
2024-02-08T01:09:23.165Z,7.57
2024-02-08T01:11:49.634Z,6.47
2024-02-08T01:14:16.160Z,6.72
2024-02-08T01:16:42.681Z,7.50
2024-02-08T01:19:09.196Z,5.95
2024-02-08T01:21:35.697Z,6.75
2024-02-08T01:24:02.108Z,8.55
2024-02-08T01:26:28.529Z,6.18
2024-02-08T01:28:55.037Z,6.47
2024-02-08T01:31:21.544Z,6.25
2024-02-08T01:33:48.053Z,7.55
2024-02-08T01:36:14.545Z,7.50
2024-02-08T01:38:41.018Z,6.20
2024-02-08T01:41:07.719Z,7.85
2024-02-08T01:43:34.385Z,8.10
2024-02-08T01:46:00.903Z,7.47
2024-02-08T01:48:27.436Z,6.88
2024-02-08T01:50:53.958Z,6.43
2024-02-08T01:53:20.507Z,6.25
2024-02-08T01:55:47.031Z,6.55
2024-02-08T01:58:13.522Z,7.28
2024-02-08T02:00:40.013Z,8.82
2024-02-08T02:03:06.472Z,8.50
2024-02-08T02:05:32.937Z,7.78
2024-02-08T02:07:59.445Z,7.55
2024-02-08T02:10:25.996Z,10.93
2024-02-08T02:12:52.466Z,8.20
2024-02-08T02:15:18.937Z,7.93
2024-02-08T02:17:45.464Z,8.20
2024-02-08T02:20:12.075Z,9.82
2024-02-08T02:22:38.576Z,8.95
2024-02-08T02:25:05.126Z,8.82
2024-02-08T02:27:31.639Z,8.07
2024-02-08T02:29:58.154Z,8.70
2024-02-08T02:32:24.891Z,6.80
2024-02-08T02:34:51.406Z,8.23
2024-02-08T02:37:17.848Z,8.60
2024-02-08T02:39:44.322Z,8.20
2024-02-08T02:42:10.759Z,8.45
2024-02-08T02:44:37.204Z,7.20
2024-02-08T02:47:03.777Z,7.93
2024-02-08T02:49:30.322Z,8.75
2024-02-08T02:51:56.817Z,7.32
2024-02-08T02:54:23.325Z,7.72
2024-02-08T02:56:49.787Z,10.52
2024-02-08T02:59:16.289Z,8.80
2024-02-08T03:01:42.843Z,7.82
2024-02-08T03:04:09.366Z,8.77
2024-02-08T03:06:35.881Z,10.82
2024-02-08T03:09:02.377Z,7.60
2024-02-08T03:11:28.809Z,7.32
2024-02-08T03:13:55.365Z,8.00
2024-02-08T03:16:21.798Z,6.80
2024-02-08T03:18:48.350Z,7.88
2024-02-08T03:21:14.856Z,6.55
2024-02-08T03:23:41.358Z,8.02
2024-02-08T03:26:07.896Z,8.48
2024-02-08T03:28:34.447Z,5.65
2024-02-08T03:31:00.918Z,7.13
2024-02-08T03:33:27.407Z,7.97
2024-02-08T03:35:53.846Z,5.18
2024-02-08T03:38:20.309Z,5.82
2024-02-08T03:40:46.771Z,5.88
2024-02-08T03:43:13.205Z,7.25
2024-02-08T03:45:39.927Z,4.57
2024-02-08T03:48:06.443Z,5.40
2024-02-08T03:50:32.947Z,6.15
2024-02-08T03:53:00.538Z,6.53
2024-02-08T03:55:27.846Z,5.63
2024-02-08T03:57:54.403Z,5.00
2024-02-08T04:00:20.878Z,5.97
2024-02-08T04:02:47.317Z,5.63
2024-02-08T04:05:13.874Z,6.88
2024-02-08T04:07:40.459Z,4.65
2024-02-08T04:10:06.890Z,5.30
2024-02-08T04:12:33.352Z,4.85
2024-02-08T04:14:59.815Z,5.57
2024-02-08T04:17:26.326Z,7.53
2024-02-08T04:19:52.920Z,6.50
2024-02-08T04:22:19.395Z,7.07
2024-02-08T04:24:45.844Z,5.90
2024-02-08T04:27:12.277Z,4.50
2024-02-08T04:29:38.728Z,6.38
2024-02-08T04:32:05.252Z,4.55
2024-02-08T04:34:31.794Z,6.10
2024-02-08T04:36:58.313Z,4.90
2024-02-08T04:39:24.801Z,5.80
2024-02-08T04:41:51.223Z,5.90
2024-02-08T04:44:17.739Z,5.25
2024-02-08T04:46:44.355Z,6.28
2024-02-08T04:49:11.044Z,6.25
2024-02-08T04:51:37.574Z,7.47
2024-02-08T04:54:04.020Z,5.03
2024-02-08T04:56:30.479Z,4.32
2024-02-08T04:59:17.146Z,6.32
2024-02-08T05:01:43.436Z,7.03
2024-02-08T05:04:09.981Z,5.95
2024-02-08T05:06:36.653Z,7.28
2024-02-08T05:09:03.212Z,6.35
2024-02-08T05:11:29.724Z,6.22
2024-02-08T05:13:56.186Z,7.07
2024-02-08T05:16:22.759Z,6.45
2024-02-08T05:18:49.403Z,8.30
2024-02-08T05:21:15.913Z,6.15
2024-02-08T05:23:42.396Z,6.63
2024-02-08T05:26:08.849Z,4.70
2024-02-08T05:28:35.271Z,7.03
2024-02-08T05:31:01.722Z,6.85
2024-02-08T05:33:28.292Z,6.97
2024-02-08T05:35:54.772Z,6.03
2024-02-08T05:38:21.230Z,7.68
2024-02-08T05:40:47.729Z,7.30
2024-02-08T05:43:14.263Z,6.45
2024-02-08T05:45:40.822Z,7.03
2024-02-08T05:48:07.830Z,7.93
2024-02-08T05:50:34.624Z,6.53
2024-02-08T05:53:01.143Z,8.02
2024-02-08T05:55:27.687Z,6.47
2024-02-08T05:57:54.373Z,6.13
2024-02-08T06:00:20.893Z,7.28
2024-02-08T06:02:47.366Z,7.97
2024-02-08T06:05:15.458Z,6.05
2024-02-08T06:07:43.388Z,5.90
2024-02-08T06:10:10.052Z,5.75
2024-02-08T06:12:36.516Z,7.15
2024-02-08T06:15:02.947Z,7.78
2024-02-08T06:17:29.391Z,8.20
2024-02-08T06:19:55.981Z,7.35
2024-02-08T06:22:22.506Z,6.97
2024-02-08T06:24:51.223Z,7.97
2024-02-08T06:27:18.084Z,7.30
2024-02-08T06:29:44.533Z,6.28
2024-02-08T06:32:10.998Z,6.90
2024-02-08T06:34:37.701Z,5.88
2024-02-08T06:37:04.281Z,8.13
2024-02-08T06:39:30.735Z,6.32
2024-02-08T06:41:57.251Z,6.47
2024-02-08T06:44:23.749Z,7.70
2024-02-08T06:46:50.231Z,6.88
2024-02-08T06:49:16.894Z,5.53
2024-02-08T06:51:43.565Z,8.98
2024-02-08T06:54:10.039Z,7.60
2024-02-08T06:56:36.483Z,6.90
2024-02-08T06:59:02.930Z,7.68
2024-02-08T07:01:29.449Z,6.07
2024-02-08T07:03:56.027Z,7.80
2024-02-08T07:06:22.558Z,7.90
2024-02-08T07:08:48.993Z,6.47
2024-02-08T07:11:15.480Z,6.07
2024-02-08T07:13:41.957Z,8.32
2024-02-08T07:16:08.426Z,5.70
2024-02-08T07:18:36.840Z,7.85
2024-02-08T07:21:03.473Z,7.13
2024-02-08T07:23:29.950Z,7.68
2024-02-08T07:25:56.375Z,6.45
2024-02-08T07:28:23.086Z,7.40
2024-02-08T07:30:49.637Z,7.70
2024-02-08T07:33:16.218Z,6.32
2024-02-08T07:35:42.749Z,7.03
2024-02-08T07:38:09.485Z,7.82
2024-02-08T07:40:36.429Z,8.70
2024-02-08T07:43:03.417Z,6.57
2024-02-08T07:45:29.912Z,6.15
2024-02-08T07:47:56.454Z,8.50
2024-02-08T07:50:22.914Z,6.43
2024-02-08T07:52:49.401Z,8.65
2024-02-08T07:55:16.503Z,5.18
2024-02-08T07:57:43.129Z,5.85
2024-02-08T08:00:09.606Z,7.35
2024-02-08T08:02:36.039Z,6.10
2024-02-08T08:05:02.772Z,5.72
2024-02-08T08:07:29.458Z,7.95
2024-02-08T08:09:55.917Z,8.30
2024-02-08T08:12:24.311Z,6.50
2024-02-08T08:14:51.522Z,7.57
2024-02-08T08:17:18.430Z,7.68
2024-02-08T08:19:45.355Z,6.82
2024-02-08T08:22:11.985Z,7.18
2024-02-08T08:24:38.495Z,6.85
2024-02-08T08:27:05.017Z,6.15
2024-02-08T08:29:31.518Z,8.25
2024-02-08T08:31:58.002Z,8.88
2024-02-08T08:34:24.620Z,6.43
2024-02-08T08:36:51.167Z,7.80
2024-02-08T08:39:17.624Z,7.80
2024-02-08T08:41:44.127Z,8.27
2024-02-08T08:44:10.708Z,7.47
2024-02-08T08:46:37.348Z,9.43
2024-02-08T08:49:04.036Z,11.10
2024-02-08T08:51:30.592Z,7.95
2024-02-08T08:53:58.435Z,10.27
2024-02-08T08:56:25.020Z,7.15
2024-02-08T08:58:51.934Z,9.68
2024-02-08T09:01:18.652Z,8.88
2024-02-08T09:03:45.434Z,6.78
2024-02-08T09:06:12.065Z,8.40
2024-02-08T09:08:38.685Z,7.32
2024-02-08T09:11:05.123Z,5.72
2024-02-08T09:13:31.641Z,8.57
2024-02-08T09:15:58.501Z,11.88
2024-02-08T09:18:25.117Z,8.25
2024-02-08T09:20:51.634Z,9.00
2024-02-08T09:23:18.094Z,5.28
2024-02-08T09:25:44.627Z,6.60
2024-02-08T09:28:11.290Z,8.93
2024-02-08T09:30:37.742Z,8.30
2024-02-08T09:33:04.289Z,11.55
2024-02-08T09:35:30.976Z,9.82
2024-02-08T09:37:57.499Z,5.38
2024-02-08T09:40:23.951Z,7.97
2024-02-08T09:42:50.451Z,6.50
2024-02-08T09:45:16.975Z,5.32
2024-02-08T09:47:43.423Z,7.85
2024-02-08T09:50:09.942Z,5.82
2024-02-08T09:52:36.537Z,8.52
2024-02-08T09:55:03.141Z,7.90
2024-02-08T09:57:29.615Z,9.75
2024-02-08T09:59:56.168Z,7.95
2024-02-08T10:02:22.644Z,9.18
2024-02-08T10:04:49.213Z,6.50
2024-02-08T10:07:15.816Z,5.03
2024-02-08T10:09:42.581Z,8.30
2024-02-08T10:12:09.167Z,7.63
2024-02-08T10:14:35.663Z,8.45
2024-02-08T10:17:02.141Z,7.78
2024-02-08T10:19:28.708Z,8.73
2024-02-08T10:21:55.361Z,9.60
2024-02-08T10:24:21.900Z,6.95
2024-02-08T10:26:48.361Z,7.07
2024-02-08T10:29:14.830Z,8.13
2024-02-08T10:31:41.344Z,8.10
2024-02-08T10:34:07.941Z,9.10
2024-02-08T10:36:34.400Z,6.97
2024-02-08T10:39:00.829Z,8.85
2024-02-08T10:41:27.357Z,5.88
2024-02-08T10:43:53.793Z,9.75
2024-02-08T10:46:20.425Z,8.13
2024-02-08T10:48:47.066Z,7.75
2024-02-08T10:51:13.636Z,9.32
2024-02-08T10:53:40.193Z,11.93
2024-02-08T10:56:06.977Z,9.30
2024-02-08T10:58:33.460Z,11.60
2024-02-08T11:01:00.033Z,11.90
2024-02-08T11:03:26.597Z,12.77
2024-02-08T11:05:53.128Z,10.00
2024-02-08T11:08:19.592Z,9.68
2024-02-08T11:10:46.032Z,9.68
2024-02-08T11:13:12.998Z,10.50
2024-02-08T11:15:39.762Z,8.85
2024-02-08T11:18:08.227Z,11.07
2024-02-08T11:20:36.595Z,8.65
2024-02-08T11:23:03.076Z,11.57
2024-02-08T11:25:29.591Z,11.43
2024-02-08T11:27:57.196Z,11.57
2024-02-08T11:30:26.663Z,12.27
2024-02-08T11:32:53.209Z,18.90
2024-02-08T11:35:19.742Z,11.82
2024-02-08T11:37:46.331Z,14.65
2024-02-08T11:40:12.923Z,13.00
2024-02-08T11:42:39.556Z,12.75
2024-02-08T11:45:06.016Z,14.20
2024-02-08T11:47:32.513Z,12.63
2024-02-08T11:49:59.057Z,12.57
2024-02-08T11:52:25.838Z,16.05
2024-02-08T11:54:52.509Z,14.30
2024-02-08T11:57:21.770Z,16.38
2024-02-08T11:59:48.521Z,13.95
2024-02-08T12:02:14.998Z,12.82
2024-02-08T12:04:41.681Z,10.35
2024-02-08T12:07:08.422Z,11.05
2024-02-08T12:09:35.250Z,9.32
2024-02-08T12:12:01.784Z,11.15
2024-02-08T12:14:28.624Z,10.70
2024-02-08T12:16:55.205Z,14.25
2024-02-08T12:19:21.803Z,13.05
2024-02-08T12:21:48.370Z,12.07
2024-02-08T12:24:14.863Z,13.70
2024-02-08T12:26:41.279Z,11.77
2024-02-08T12:29:07.705Z,15.52
2024-02-08T12:31:34.314Z,14.38
2024-02-08T12:34:01.056Z,12.32
2024-02-08T12:36:27.663Z,10.68
2024-02-08T12:38:54.188Z,8.88
2024-02-08T12:41:20.740Z,7.00
2024-02-08T12:43:47.344Z,7.22
2024-02-08T12:46:13.938Z,7.40
2024-02-08T12:48:40.473Z,8.93
2024-02-08T12:51:06.987Z,9.48
2024-02-08T12:53:33.484Z,8.50
2024-02-08T12:55:59.912Z,8.90
2024-02-08T12:58:26.424Z,9.60
2024-02-08T13:00:52.946Z,16.65
2024-02-08T13:03:19.440Z,12.93
2024-02-08T13:05:46.067Z,10.10
2024-02-08T13:08:12.634Z,8.25
2024-02-08T13:10:40.453Z,10.93
2024-02-08T13:13:07.576Z,11.45
2024-02-08T13:15:34.045Z,10.05
2024-02-08T13:18:00.580Z,10.80
2024-02-08T13:20:27.144Z,11.13
2024-02-08T13:22:53.891Z,12.32
2024-02-08T13:25:20.528Z,9.82
2024-02-08T13:27:47.070Z,9.18
2024-02-08T13:30:13.715Z,7.53
2024-02-08T13:32:40.171Z,13.68
2024-02-08T13:35:06.886Z,9.73
2024-02-08T13:37:33.591Z,9.70
2024-02-08T13:40:00.819Z,8.23
2024-02-08T13:42:39.097Z,9.48
2024-02-08T13:45:14.498Z,6.85
2024-02-08T13:47:41.363Z,8.70
2024-02-08T13:50:07.972Z,4.90
2024-02-08T13:52:34.498Z,6.90
2024-02-08T13:55:01.045Z,5.93
2024-02-08T13:57:27.541Z,7.18
2024-02-08T13:59:53.958Z,6.50
2024-02-08T14:02:20.681Z,6.10
2024-02-08T14:04:47.124Z,6.20
2024-02-08T14:07:13.677Z,7.82
2024-02-08T14:09:40.154Z,6.75
2024-02-08T14:12:06.572Z,5.35
2024-02-08T14:14:33.028Z,5.55
2024-02-08T14:16:59.512Z,5.03
2024-02-08T14:19:26.099Z,5.32
2024-02-08T14:21:52.618Z,5.43
2024-02-08T14:24:19.106Z,5.82
2024-02-08T14:26:45.563Z,4.88
2024-02-08T14:29:12.071Z,9.07
2024-02-08T14:31:40.114Z,7.28
2024-02-08T14:34:07.804Z,4.70
2024-02-08T14:36:34.254Z,5.13
2024-02-08T14:39:00.680Z,6.85
2024-02-08T14:41:28.297Z,6.47
2024-02-08T14:43:55.245Z,4.82
2024-02-08T14:46:21.680Z,4.57
2024-02-08T14:48:48.242Z,5.57
2024-02-08T14:51:14.737Z,7.18
2024-02-08T14:53:41.205Z,6.05
2024-02-08T14:56:07.850Z,5.20
2024-02-08T14:58:34.528Z,7.07
2024-02-08T15:01:02.176Z,5.97
2024-02-08T15:03:29.709Z,6.13
2024-02-08T15:05:56.355Z,5.78
2024-02-08T15:08:22.916Z,5.88
2024-02-08T15:10:49.377Z,5.63
2024-02-08T15:13:15.891Z,4.10
2024-02-08T15:15:42.360Z,5.70
2024-02-08T15:18:08.837Z,5.43
2024-02-08T15:20:35.344Z,6.65
2024-02-08T15:23:01.835Z,5.97
2024-02-08T15:25:28.376Z,6.65
2024-02-08T15:27:55.042Z,3.97
2024-02-08T15:30:21.523Z,5.43
2024-02-08T15:32:48.196Z,6.18
2024-02-08T15:35:14.981Z,5.45
2024-02-08T15:37:41.658Z,4.40
2024-02-08T15:40:08.165Z,5.18
2024-02-08T15:42:34.696Z,4.70
2024-02-08T15:45:01.318Z,5.68
2024-02-08T15:47:27.959Z,6.82
2024-02-08T15:49:54.535Z,4.75
2024-02-08T15:52:21.057Z,4.60
2024-02-08T15:54:47.630Z,5.97
2024-02-08T15:57:14.312Z,5.57
2024-02-08T15:59:40.834Z,6.85
2024-02-08T16:02:07.405Z,6.80
2024-02-08T16:04:34.027Z,6.97
2024-02-08T16:07:00.729Z,4.72
2024-02-08T16:09:28.365Z,5.63
2024-02-08T16:11:55.329Z,6.15
2024-02-08T16:14:21.802Z,4.78
2024-02-08T16:16:48.223Z,5.38
2024-02-08T16:19:14.813Z,7.22
2024-02-08T16:21:41.337Z,4.88
2024-02-08T16:24:07.820Z,6.10
2024-02-08T16:26:36.268Z,4.90
2024-02-08T16:29:03.072Z,6.00
2024-02-08T16:31:29.504Z,5.85
2024-02-08T16:33:56.982Z,4.43
2024-02-08T16:36:23.956Z,5.65
2024-02-08T16:38:50.436Z,5.32
2024-02-08T16:41:16.898Z,5.35
2024-02-08T16:43:43.368Z,5.72
2024-02-08T16:46:09.825Z,5.28
2024-02-08T16:48:36.318Z,4.70
2024-02-08T16:51:02.835Z,5.68
2024-02-08T16:53:29.317Z,3.88
2024-02-08T16:55:55.746Z,4.35
2024-02-08T16:58:22.317Z,4.28
2024-02-08T17:00:48.793Z,4.50
2024-02-08T17:03:15.793Z,3.72
2024-02-08T17:05:42.407Z,5.00
2024-02-08T17:08:08.856Z,4.50
2024-02-08T17:10:35.749Z,5.03
2024-02-08T17:13:02.327Z,4.10
2024-02-08T17:15:28.911Z,4.43
2024-02-08T17:17:55.648Z,4.40
2024-02-08T17:20:22.170Z,4.25
2024-02-08T17:22:48.645Z,5.25
2024-02-08T17:25:15.172Z,4.80
2024-02-08T17:27:41.688Z,5.68
2024-02-08T17:30:08.183Z,5.38
2024-02-08T17:32:34.719Z,4.43
2024-02-08T17:35:01.363Z,5.07
2024-02-08T17:37:27.994Z,4.53
2024-02-08T17:39:54.517Z,4.95
2024-02-08T17:42:21.002Z,4.60
2024-02-08T17:44:47.487Z,4.20
2024-02-08T17:47:13.969Z,4.85
2024-02-08T17:49:40.478Z,3.78
2024-02-08T17:52:07.193Z,4.43
2024-02-08T17:54:33.863Z,3.80
2024-02-08T17:57:00.344Z,3.85
2024-02-08T17:59:26.765Z,3.55
2024-02-08T18:01:53.224Z,3.90
2024-02-08T18:04:19.664Z,3.92
2024-02-08T18:06:46.244Z,4.40
2024-02-08T18:09:12.739Z,4.10
2024-02-08T18:11:39.178Z,4.05
2024-02-08T18:14:05.662Z,3.97
2024-02-08T18:16:32.193Z,4.93
2024-02-08T18:18:58.947Z,4.63
2024-02-08T18:21:25.548Z,5.90
2024-02-08T18:23:52.025Z,4.80
2024-02-08T18:26:18.521Z,4.97
2024-02-08T18:28:45.000Z,5.18
2024-02-08T18:31:11.512Z,4.95
2024-02-08T18:33:38.417Z,5.63
2024-02-08T18:36:05.039Z,5.28
2024-02-08T18:38:31.509Z,5.70
2024-02-08T18:40:57.927Z,5.32
2024-02-08T18:43:24.580Z,9.32
2024-02-08T18:45:51.539Z,5.60
2024-02-08T18:48:18.118Z,6.30
2024-02-08T18:50:44.808Z,5.30
2024-02-08T18:53:11.254Z,5.22
2024-02-08T18:55:37.825Z,6.80
2024-02-08T18:58:04.332Z,7.13
2024-02-08T19:00:30.776Z,7.35
2024-02-08T19:02:57.210Z,6.50
2024-02-08T19:05:23.832Z,7.18
2024-02-08T19:07:50.331Z,7.50
2024-02-08T19:10:16.863Z,7.35
2024-02-08T19:12:43.314Z,8.43
2024-02-08T19:15:09.784Z,8.45
2024-02-08T19:17:36.347Z,8.30
2024-02-08T19:20:02.946Z,7.78
2024-02-08T19:22:29.495Z,8.52
2024-02-08T19:24:56.011Z,7.53
2024-02-08T19:27:22.560Z,8.10
2024-02-08T19:29:49.053Z,7.68
2024-02-08T19:32:15.595Z,7.63
2024-02-08T19:34:42.126Z,8.20
2024-02-08T19:37:08.689Z,7.40
2024-02-08T19:39:35.208Z,7.55
2024-02-08T19:42:01.638Z,6.97
2024-02-08T19:44:28.413Z,6.38
2024-02-08T19:47:03.501Z,6.25
2024-02-08T19:49:35.334Z,7.90
2024-02-08T19:52:01.873Z,7.55
2024-02-08T19:54:28.363Z,6.45
2024-02-08T19:56:54.887Z,7.72
2024-02-08T19:59:21.361Z,6.85
2024-02-08T20:01:47.890Z,6.75
2024-02-08T20:04:14.556Z,6.88
2024-02-08T20:06:41.152Z,6.60
2024-02-08T20:09:07.639Z,7.45
2024-02-08T20:11:34.082Z,6.38
2024-02-08T20:14:00.574Z,8.55
2024-02-08T20:16:28.569Z,7.55
2024-02-08T20:18:55.762Z,7.53
2024-02-08T20:21:22.373Z,8.20
2024-02-08T20:23:48.840Z,6.93
2024-02-08T20:26:15.387Z,7.45
2024-02-08T20:28:41.969Z,7.15
2024-02-08T20:31:08.559Z,6.60
2024-02-08T20:33:35.061Z,6.60
2024-02-08T20:36:01.541Z,7.97
2024-02-08T20:38:28.189Z,7.68
2024-02-08T20:40:54.705Z,7.72
2024-02-08T20:43:21.177Z,5.95
2024-02-08T20:45:47.681Z,6.90
2024-02-08T20:48:14.125Z,6.95
2024-02-08T20:50:40.597Z,7.00
2024-02-08T20:53:07.054Z,7.03
2024-02-08T20:55:33.580Z,7.45
2024-02-08T20:58:00.170Z,7.18
2024-02-08T21:00:26.669Z,7.10
2024-02-08T21:02:53.094Z,8.63
2024-02-08T21:05:19.549Z,8.52
2024-02-08T21:07:46.025Z,9.40
2024-02-08T21:10:12.538Z,8.57
2024-02-08T21:12:39.026Z,8.68
2024-02-08T21:15:05.465Z,9.52
2024-02-08T21:17:31.989Z,7.97
2024-02-08T21:19:58.593Z,9.25
2024-02-08T21:22:25.197Z,7.78
2024-02-08T21:24:51.686Z,9.40
2024-02-08T21:27:18.162Z,7.82
2024-02-08T21:29:44.613Z,6.88
2024-02-08T21:32:11.050Z,7.65
2024-02-08T21:34:37.579Z,6.90
2024-02-08T21:37:04.349Z,7.15
2024-02-08T21:39:30.895Z,7.80
2024-02-08T21:41:57.434Z,6.90
2024-02-08T21:44:23.884Z,6.80
2024-02-08T21:46:50.338Z,6.78
2024-02-08T21:49:18.351Z,7.53
2024-02-08T21:51:46.126Z,6.20
2024-02-08T21:54:12.642Z,5.72
2024-02-08T21:56:39.428Z,5.63
2024-02-08T21:59:06.023Z,6.88
2024-02-08T22:01:36.414Z,7.05
2024-02-08T22:04:03.624Z,7.38
2024-02-08T22:06:30.207Z,6.10
2024-02-08T22:08:56.737Z,7.22
2024-02-08T22:11:23.175Z,7.38
2024-02-08T22:13:49.653Z,8.32
2024-02-08T22:16:16.096Z,6.25
2024-02-08T22:18:42.589Z,6.47
2024-02-08T22:21:09.013Z,6.57
2024-02-08T22:23:35.491Z,7.38
2024-02-08T22:26:01.895Z,7.97
2024-02-08T22:28:28.462Z,8.35
2024-02-08T22:30:54.936Z,7.43
2024-02-08T22:33:21.418Z,6.72
2024-02-08T22:35:47.911Z,7.30
2024-02-08T22:38:14.394Z,8.07
2024-02-08T22:40:40.942Z,8.18
2024-02-08T22:43:07.431Z,8.00
2024-02-08T22:45:34.013Z,9.30
2024-02-08T22:48:00.507Z,10.15
2024-02-08T22:50:27.125Z,7.93
2024-02-08T22:52:53.663Z,8.93
2024-02-08T22:55:20.176Z,8.20
2024-02-08T22:57:46.790Z,8.35
2024-02-08T23:00:13.273Z,8.23
2024-02-08T23:02:39.679Z,9.20
2024-02-08T23:05:06.314Z,9.63
2024-02-08T23:07:32.975Z,8.93
2024-02-08T23:09:59.561Z,8.45
2024-02-08T23:12:26.035Z,7.88
2024-02-08T23:14:52.542Z,8.35
2024-02-08T23:17:18.966Z,7.63
2024-02-08T23:19:45.507Z,8.38
2024-02-08T23:22:12.064Z,8.48
2024-02-08T23:24:38.522Z,9.20
2024-02-08T23:27:04.997Z,9.40
2024-02-08T23:29:31.488Z,9.45
2024-02-08T23:31:57.900Z,8.75
2024-02-08T23:34:24.634Z,7.68
2024-02-08T23:36:51.110Z,7.95
2024-02-08T23:39:17.541Z,9.68
2024-02-08T23:41:43.953Z,7.72
2024-02-08T23:44:10.365Z,8.88
2024-02-08T23:46:36.853Z,8.05
2024-02-08T23:49:03.359Z,8.02
2024-02-08T23:51:29.902Z,7.10
2024-02-08T23:53:56.387Z,8.77
2024-02-08T23:56:22.876Z,8.57
2024-02-08T23:58:49.303Z,7.60
